sensor_id;sensor_type;location;lat;lon;timestamp;pressure;altitude;pressure_sealevel;temperature;humidity
40315;BME280;26021;45.640;11.302;2023-03-03T00:01:15;98758.88;;;3.70;100.00
40315;BME280;26021;45.640;11.302;2023-03-03T00:03:41;98812.72;;;4.00;100.00
40315;BME280;26021;45.640;11.302;2023-03-03T00:06:10;98805.72;;;3.89;100.00
40315;BME280;26021;45.640;11.302;2023-03-03T00:08:35;98806.94;;;3.75;100.00
40315;BME280;26021;45.640;11.302;2023-03-03T00:11:01;98805.66;;;3.70;100.00
40315;BME280;26021;45.640;11.302;2023-03-03T00:13:30;98799.72;;;3.87;100.00
40315;BME280;26021;45.640;11.302;2023-03-03T00:18:49;98798.75;;;3.78;100.00
40315;BME280;26021;45.640;11.302;2023-03-03T00:21:25;98799.97;;;3.74;100.00
40315;BME280;26021;45.640;11.302;2023-03-03T00:23:54;98747.78;;;3.36;100.00
40315;BME280;26021;45.640;11.302;2023-03-03T00:26:29;98805.75;;;3.59;100.00
40315;BME280;26021;45.640;11.302;2023-03-03T00:28:55;98772.75;;;3.53;100.00
40315;BME280;26021;45.640;11.302;2023-03-03T00:31:33;98803.00;;;3.70;100.00
40315;BME280;26021;45.640;11.302;2023-03-03T00:34:23;98799.44;;;3.80;100.00
40315;BME280;26021;45.640;11.302;2023-03-03T00:36:52;98789.53;;;3.73;100.00
40315;BME280;26021;45.640;11.302;2023-03-03T00:41:52;98796.00;;;3.59;100.00
40315;BME280;26021;45.640;11.302;2023-03-03T00:46:50;98677.72;;;3.11;100.00
40315;BME280;26021;45.640;11.302;2023-03-03T00:49:23;98789.91;;;3.68;100.00
40315;BME280;26021;45.640;11.302;2023-03-03T00:51:51;98762.59;;;3.58;100.00
40315;BME280;26021;45.640;11.302;2023-03-03T00:54:17;98792.69;;;3.67;100.00
40315;BME280;26021;45.640;11.302;2023-03-03T00:56:42;98778.16;;;3.51;100.00
40315;BME280;26021;45.640;11.302;2023-03-03T00:59:08;98754.31;;;3.32;100.00
40315;BME280;26021;45.640;11.302;2023-03-03T01:01:33;98786.22;;;3.50;100.00
40315;BME280;26021;45.640;11.302;2023-03-03T01:03:58;98787.91;;;3.51;100.00
40315;BME280;26021;45.640;11.302;2023-03-03T01:06:24;98785.69;;;3.56;100.00
40315;BME280;26021;45.640;11.302;2023-03-03T01:08:50;98786.94;;;3.52;100.00
40315;BME280;26021;45.640;11.302;2023-03-03T01:11:20;98779.25;;;3.39;100.00
40315;BME280;26021;45.640;11.302;2023-03-03T01:13:47;98778.88;;;3.54;100.00
40315;BME280;26021;45.640;11.302;2023-03-03T01:16:14;98719.59;;;3.16;100.00
40315;BME280;26021;45.640;11.302;2023-03-03T01:18:40;98776.06;;;3.45;100.00
40315;BME280;26021;45.640;11.302;2023-03-03T01:21:07;98777.00;;;3.35;100.00
40315;BME280;26021;45.640;11.302;2023-03-03T01:23:33;98773.13;;;3.39;100.00
40315;BME280;26021;45.640;11.302;2023-03-03T01:25:58;98763.16;;;3.62;100.00
40315;BME280;26021;45.640;11.302;2023-03-03T01:28:24;98768.22;;;3.34;100.00
40315;BME280;26021;45.640;11.302;2023-03-03T01:30:49;98759.84;;;3.29;100.00
40315;BME280;26021;45.640;11.302;2023-03-03T01:33:15;98760.34;;;3.44;100.00
40315;BME280;26021;45.640;11.302;2023-03-03T01:35:47;98753.94;;;3.46;100.00
40315;BME280;26021;45.640;11.302;2023-03-03T01:38:14;98751.84;;;3.50;100.00
40315;BME280;26021;45.640;11.302;2023-03-03T01:40:40;98754.47;;;3.40;100.00
40315;BME280;26021;45.640;11.302;2023-03-03T01:43:06;98748.19;;;3.32;100.00
40315;BME280;26021;45.640;11.302;2023-03-03T01:48:32;98740.97;;;3.34;100.00
40315;BME280;26021;45.640;11.302;2023-03-03T01:51:05;98740.38;;;3.30;100.00
40315;BME280;26021;45.640;11.302;2023-03-03T01:53:42;98735.84;;;3.42;100.00
40315;BME280;26021;45.640;11.302;2023-03-03T01:56:09;98736.97;;;3.49;100.00
40315;BME280;26021;45.640;11.302;2023-03-03T01:58:41;98725.16;;;3.63;100.00
40315;BME280;26021;45.640;11.302;2023-03-03T02:01:11;98671.38;;;3.24;100.00
40315;BME280;26021;45.640;11.302;2023-03-03T02:03:39;98721.09;;;3.49;100.00
40315;BME280;26021;45.640;11.302;2023-03-03T02:06:08;98720.66;;;3.44;100.00
40315;BME280;26021;45.640;11.302;2023-03-03T02:11:21;98667.97;;;3.02;100.00
40315;BME280;26021;45.640;11.302;2023-03-03T02:13:47;98648.97;;;2.87;100.00
40315;BME280;26021;45.640;11.302;2023-03-03T02:16:13;98710.03;;;3.25;100.00
40315;BME280;26021;45.640;11.302;2023-03-03T02:18:39;98710.19;;;3.23;100.00
40315;BME280;26021;45.640;11.302;2023-03-03T02:21:20;98708.19;;;3.15;100.00
40315;BME280;26021;45.640;11.302;2023-03-03T02:23:52;98705.16;;;3.20;100.00
40315;BME280;26021;45.640;11.302;2023-03-03T02:26:24;98692.84;;;3.49;100.00
40315;BME280;26021;45.640;11.302;2023-03-03T02:28:50;98672.78;;;3.28;100.00
40315;BME280;26021;45.640;11.302;2023-03-03T02:31:21;98687.41;;;3.41;100.00
40315;BME280;26021;45.640;11.302;2023-03-03T02:33:50;98690.28;;;3.29;100.00
40315;BME280;26021;45.640;11.302;2023-03-03T02:36:36;98684.31;;;3.27;100.00
40315;BME280;26021;45.640;11.302;2023-03-03T02:39:22;98687.22;;;3.24;100.00
40315;BME280;26021;45.640;11.302;2023-03-03T02:44:25;98669.19;;;3.38;100.00
40315;BME280;26021;45.640;11.302;2023-03-03T02:46:54;98672.88;;;3.16;100.00
40315;BME280;26021;45.640;11.302;2023-03-03T02:49:25;98668.25;;;3.09;100.00
40315;BME280;26021;45.640;11.302;2023-03-03T02:51:51;98670.38;;;3.15;100.00
40315;BME280;26021;45.640;11.302;2023-03-03T02:54:19;98646.06;;;2.91;100.00
40315;BME280;26021;45.640;11.302;2023-03-03T02:56:45;98669.91;;;3.00;100.00
40315;BME280;26021;45.640;11.302;2023-03-03T02:59:11;98661.00;;;3.01;100.00
40315;BME280;26021;45.640;11.302;2023-03-03T03:01:37;98667.06;;;2.92;100.00
40315;BME280;26021;45.640;11.302;2023-03-03T03:04:10;98669.50;;;3.05;100.00
40315;BME280;26021;45.640;11.302;2023-03-03T03:06:36;98667.75;;;2.94;100.00
40315;BME280;26021;45.640;11.302;2023-03-03T03:09:03;98663.25;;;3.06;100.00
40315;BME280;26021;45.640;11.302;2023-03-03T03:11:29;98662.44;;;3.15;100.00
40315;BME280;26021;45.640;11.302;2023-03-03T03:13:54;98657.00;;;3.07;100.00
40315;BME280;26021;45.640;11.302;2023-03-03T03:16:19;98649.75;;;2.99;100.00
40315;BME280;26021;45.640;11.302;2023-03-03T03:18:45;98656.94;;;2.97;100.00
40315;BME280;26021;45.640;11.302;2023-03-03T03:21:12;98645.53;;;2.97;100.00
40315;BME280;26021;45.640;11.302;2023-03-03T03:23:38;98650.91;;;2.85;100.00
40315;BME280;26021;45.640;11.302;2023-03-03T03:26:04;98649.81;;;2.88;100.00
40315;BME280;26021;45.640;11.302;2023-03-03T03:28:31;98652.53;;;3.07;100.00
40315;BME280;26021;45.640;11.302;2023-03-03T03:30:56;98656.19;;;3.16;100.00
40315;BME280;26021;45.640;11.302;2023-03-03T03:33:22;98658.53;;;3.09;100.00
40315;BME280;26021;45.640;11.302;2023-03-03T03:35:48;98656.16;;;3.06;100.00
40315;BME280;26021;45.640;11.302;2023-03-03T03:38:15;98653.84;;;3.32;100.00
40315;BME280;26021;45.640;11.302;2023-03-03T03:40:41;98651.63;;;3.28;100.00
40315;BME280;26021;45.640;11.302;2023-03-03T03:43:07;98643.78;;;3.07;100.00
40315;BME280;26021;45.640;11.302;2023-03-03T03:45:32;98657.41;;;3.02;100.00
40315;BME280;26021;45.640;11.302;2023-03-03T03:47:58;98643.00;;;3.26;100.00
40315;BME280;26021;45.640;11.302;2023-03-03T03:50:23;98648.88;;;3.39;100.00
40315;BME280;26021;45.640;11.302;2023-03-03T03:52:49;98647.03;;;3.30;100.00
40315;BME280;26021;45.640;11.302;2023-03-03T03:55:14;98649.13;;;3.36;100.00
40315;BME280;26021;45.640;11.302;2023-03-03T03:57:41;98632.97;;;3.19;100.00
40315;BME280;26021;45.640;11.302;2023-03-03T04:00:09;98638.66;;;3.15;100.00
40315;BME280;26021;45.640;11.302;2023-03-03T04:02:35;98423.22;;;1.82;100.00
40315;BME280;26021;45.640;11.302;2023-03-03T04:05:00;98644.34;;;3.10;100.00
40315;BME280;26021;45.640;11.302;2023-03-03T04:07:26;98636.72;;;3.17;100.00
40315;BME280;26021;45.640;11.302;2023-03-03T04:09:52;98635.78;;;2.97;100.00
40315;BME280;26021;45.640;11.302;2023-03-03T04:12:17;98641.44;;;2.83;100.00
40315;BME280;26021;45.640;11.302;2023-03-03T04:14:43;98635.94;;;2.96;100.00
40315;BME280;26021;45.640;11.302;2023-03-03T04:17:15;98546.88;;;2.27;100.00
40315;BME280;26021;45.640;11.302;2023-03-03T04:19:40;98629.38;;;2.90;100.00
40315;BME280;26021;45.640;11.302;2023-03-03T04:22:06;98632.94;;;2.79;100.00
40315;BME280;26021;45.640;11.302;2023-03-03T04:24:31;98636.81;;;2.75;100.00
40315;BME280;26021;45.640;11.302;2023-03-03T04:26:57;98644.38;;;2.90;100.00
40315;BME280;26021;45.640;11.302;2023-03-03T04:29:22;98339.44;;;0.83;100.00
40315;BME280;26021;45.640;11.302;2023-03-03T04:31:48;98630.31;;;2.79;100.00
40315;BME280;26021;45.640;11.302;2023-03-03T04:34:13;98628.00;;;2.96;100.00
40315;BME280;26021;45.640;11.302;2023-03-03T04:36:38;98631.94;;;3.01;100.00
40315;BME280;26021;45.640;11.302;2023-03-03T04:39:04;98633.25;;;2.86;100.00
40315;BME280;26021;45.640;11.302;2023-03-03T04:41:29;98627.63;;;3.00;100.00
40315;BME280;26021;45.640;11.302;2023-03-03T04:43:55;98625.69;;;3.02;100.00
40315;BME280;26021;45.640;11.302;2023-03-03T04:46:20;98626.69;;;2.80;100.00
40315;BME280;26021;45.640;11.302;2023-03-03T04:48:45;98625.91;;;2.90;100.00
40315;BME280;26021;45.640;11.302;2023-03-03T04:51:11;98624.78;;;2.92;100.00
40315;BME280;26021;45.640;11.302;2023-03-03T04:53:36;98620.72;;;2.78;100.00
40315;BME280;26021;45.640;11.302;2023-03-03T04:56:02;98631.16;;;2.80;100.00
40315;BME280;26021;45.640;11.302;2023-03-03T04:58:29;98627.31;;;2.63;100.00
40315;BME280;26021;45.640;11.302;2023-03-03T05:00:56;98623.06;;;2.72;100.00
40315;BME280;26021;45.640;11.302;2023-03-03T05:03:22;98627.75;;;2.68;100.00
40315;BME280;26021;45.640;11.302;2023-03-03T05:05:48;98625.22;;;2.57;100.00
40315;BME280;26021;45.640;11.302;2023-03-03T05:08:14;98581.47;;;2.34;100.00
40315;BME280;26021;45.640;11.302;2023-03-03T05:10:39;98637.31;;;2.60;100.00
40315;BME280;26021;45.640;11.302;2023-03-03T05:13:05;98620.09;;;2.65;100.00
40315;BME280;26021;45.640;11.302;2023-03-03T05:15:31;98619.00;;;2.68;100.00
40315;BME280;26021;45.640;11.302;2023-03-03T05:17:56;98624.91;;;2.50;100.00
40315;BME280;26021;45.640;11.302;2023-03-03T05:20:23;98627.59;;;2.60;100.00
40315;BME280;26021;45.640;11.302;2023-03-03T05:22:49;98623.75;;;2.43;100.00
40315;BME280;26021;45.640;11.302;2023-03-03T05:25:14;98577.22;;;2.21;100.00
40315;BME280;26021;45.640;11.302;2023-03-03T05:27:40;98629.22;;;2.51;100.00
40315;BME280;26021;45.640;11.302;2023-03-03T05:30:06;98599.31;;;2.20;100.00
40315;BME280;26021;45.640;11.302;2023-03-03T05:32:31;98633.88;;;2.69;100.00
40315;BME280;26021;45.640;11.302;2023-03-03T05:34:57;98635.66;;;2.59;100.00
40315;BME280;26021;45.640;11.302;2023-03-03T05:37:22;98636.44;;;2.49;100.00
40315;BME280;26021;45.640;11.302;2023-03-03T05:39:48;98628.41;;;2.30;100.00
40315;BME280;26021;45.640;11.302;2023-03-03T05:42:32;98638.38;;;2.47;100.00
40315;BME280;26021;45.640;11.302;2023-03-03T05:44:58;98643.16;;;2.33;100.00
40315;BME280;26021;45.640;11.302;2023-03-03T05:47:23;98636.91;;;2.34;100.00
40315;BME280;26021;45.640;11.302;2023-03-03T05:49:48;98646.25;;;2.38;100.00
40315;BME280;26021;45.640;11.302;2023-03-03T05:52:14;98636.78;;;2.66;100.00
40315;BME280;26021;45.640;11.302;2023-03-03T05:54:39;98610.91;;;2.60;100.00
40315;BME280;26021;45.640;11.302;2023-03-03T05:57:04;98644.00;;;2.64;100.00
40315;BME280;26021;45.640;11.302;2023-03-03T05:59:30;98647.41;;;2.75;100.00
40315;BME280;26021;45.640;11.302;2023-03-03T06:01:55;98632.34;;;2.66;100.00
40315;BME280;26021;45.640;11.302;2023-03-03T06:04:21;98649.06;;;2.76;100.00
40315;BME280;26021;45.640;11.302;2023-03-03T06:06:46;98646.78;;;2.62;100.00
40315;BME280;26021;45.640;11.302;2023-03-03T06:09:11;98645.44;;;2.77;100.00
40315;BME280;26021;45.640;11.302;2023-03-03T06:11:37;98651.00;;;2.74;100.00
40315;BME280;26021;45.640;11.302;2023-03-03T06:14:02;98644.13;;;2.93;100.00
40315;BME280;26021;45.640;11.302;2023-03-03T06:16:28;98652.16;;;2.81;100.00
40315;BME280;26021;45.640;11.302;2023-03-03T06:18:53;98657.50;;;2.70;100.00
40315;BME280;26021;45.640;11.302;2023-03-03T06:21:18;98653.19;;;2.69;100.00
40315;BME280;26021;45.640;11.302;2023-03-03T06:23:44;98654.97;;;2.59;100.00
40315;BME280;26021;45.640;11.302;2023-03-03T06:26:09;98655.28;;;2.66;100.00
40315;BME280;26021;45.640;11.302;2023-03-03T06:28:35;98657.72;;;2.88;100.00
40315;BME280;26021;45.640;11.302;2023-03-03T06:31:00;98658.84;;;2.85;100.00
40315;BME280;26021;45.640;11.302;2023-03-03T06:33:25;98667.69;;;2.75;100.00
40315;BME280;26021;45.640;11.302;2023-03-03T06:35:52;98658.44;;;2.90;100.00
40315;BME280;26021;45.640;11.302;2023-03-03T06:38:18;98631.44;;;2.86;100.00
40315;BME280;26021;45.640;11.302;2023-03-03T06:40:44;98654.28;;;3.37;100.00
40315;BME280;26021;45.640;11.302;2023-03-03T06:43:10;98660.16;;;3.60;100.00
40315;BME280;26021;45.640;11.302;2023-03-03T06:45:35;98664.53;;;3.80;100.00
40315;BME280;26021;45.640;11.302;2023-03-03T06:48:01;98629.81;;;3.64;100.00
40315;BME280;26021;45.640;11.302;2023-03-03T06:50:27;98668.00;;;4.00;100.00
40315;BME280;26021;45.640;11.302;2023-03-03T06:55:31;98638.06;;;4.00;100.00
40315;BME280;26021;45.640;11.302;2023-03-03T06:57:58;98658.75;;;4.43;100.00
40315;BME280;26021;45.640;11.302;2023-03-03T07:00:26;98671.13;;;4.62;100.00
40315;BME280;26021;45.640;11.302;2023-03-03T07:03:07;98665.50;;;4.84;100.00
40315;BME280;26021;45.640;11.302;2023-03-03T07:05:32;98653.47;;;5.27;100.00
40315;BME280;26021;45.640;11.302;2023-03-03T07:07:59;98634.94;;;5.17;100.00
40315;BME280;26021;45.640;11.302;2023-03-03T07:10:26;98665.56;;;5.74;100.00
40315;BME280;26021;45.640;11.302;2023-03-03T07:12:53;98670.09;;;5.92;100.00
40315;BME280;26021;45.640;11.302;2023-03-03T07:15:22;98669.41;;;5.90;100.00
40315;BME280;26021;45.640;11.302;2023-03-03T07:17:51;98670.88;;;6.02;100.00
40315;BME280;26021;45.640;11.302;2023-03-03T07:20:21;98665.31;;;6.31;100.00
40315;BME280;26021;45.640;11.302;2023-03-03T07:22:47;98670.16;;;6.35;100.00
40315;BME280;26021;45.640;11.302;2023-03-03T07:25:39;98670.84;;;6.63;100.00
40315;BME280;26021;45.640;11.302;2023-03-03T07:28:23;98677.22;;;6.71;100.00
40315;BME280;26021;45.640;11.302;2023-03-03T07:30:48;98610.50;;;6.56;100.00
40315;BME280;26021;45.640;11.302;2023-03-03T07:33:28;98675.91;;;7.00;100.00
40315;BME280;26021;45.640;11.302;2023-03-03T07:36:02;98685.03;;;6.98;100.00
40315;BME280;26021;45.640;11.302;2023-03-03T07:41:16;98679.97;;;6.87;100.00
40315;BME280;26021;45.640;11.302;2023-03-03T07:47:14;98689.50;;;6.97;100.00
40315;BME280;26021;45.640;11.302;2023-03-03T07:49:42;98684.44;;;7.46;100.00
40315;BME280;26021;45.640;11.302;2023-03-03T07:52:39;98694.25;;;7.46;100.00
40315;BME280;26021;45.640;11.302;2023-03-03T07:55:26;98692.84;;;7.84;100.00
40315;BME280;26021;45.640;11.302;2023-03-03T07:57:55;98702.09;;;7.55;100.00
40315;BME280;26021;45.640;11.302;2023-03-03T08:03:15;98691.38;;;7.89;100.00
40315;BME280;26021;45.640;11.302;2023-03-03T08:05:46;98698.41;;;8.15;100.00
40315;BME280;26021;45.640;11.302;2023-03-03T08:08:30;98710.22;;;8.12;100.00
40315;BME280;26021;45.640;11.302;2023-03-03T08:11:01;98708.88;;;8.00;100.00
40315;BME280;26021;45.640;11.302;2023-03-03T08:16:00;98707.38;;;8.14;100.00
40315;BME280;26021;45.640;11.302;2023-03-03T08:18:34;98711.53;;;8.08;100.00
40315;BME280;26021;45.640;11.302;2023-03-03T08:21:02;98707.03;;;8.09;100.00
40315;BME280;26021;45.640;11.302;2023-03-03T08:23:29;98710.53;;;8.09;100.00
40315;BME280;26021;45.640;11.302;2023-03-03T08:25:55;98716.47;;;8.53;100.00
40315;BME280;26021;45.640;11.302;2023-03-03T08:28:20;98717.63;;;8.35;100.00
40315;BME280;26021;45.640;11.302;2023-03-03T08:30:47;98719.63;;;8.41;100.00
40315;BME280;26021;45.640;11.302;2023-03-03T08:33:13;98717.13;;;8.39;100.00
40315;BME280;26021;45.640;11.302;2023-03-03T08:35:39;98710.28;;;8.37;100.00
40315;BME280;26021;45.640;11.302;2023-03-03T08:38:05;98712.47;;;8.49;100.00
40315;BME280;26021;45.640;11.302;2023-03-03T08:40:31;98718.94;;;8.55;100.00
40315;BME280;26021;45.640;11.302;2023-03-03T08:42:57;98711.63;;;8.65;100.00
40315;BME280;26021;45.640;11.302;2023-03-03T08:45:23;98741.09;;;8.80;100.00
40315;BME280;26021;45.640;11.302;2023-03-03T08:47:49;98681.78;;;8.62;100.00
40315;BME280;26021;45.640;11.302;2023-03-03T08:50:14;98697.78;;;8.78;100.00
40315;BME280;26021;45.640;11.302;2023-03-03T08:52:39;98715.88;;;9.15;100.00
40315;BME280;26021;45.640;11.302;2023-03-03T08:55:05;98715.53;;;9.26;100.00
40315;BME280;26021;45.640;11.302;2023-03-03T08:57:31;98708.19;;;9.20;100.00
40315;BME280;26021;45.640;11.302;2023-03-03T08:59:56;98565.53;;;8.44;100.00
40315;BME280;26021;45.640;11.302;2023-03-03T09:02:22;98711.97;;;9.42;100.00
40315;BME280;26021;45.640;11.302;2023-03-03T09:04:47;98712.81;;;9.34;100.00
40315;BME280;26021;45.640;11.302;2023-03-03T09:07:12;98642.41;;;8.88;100.00
40315;BME280;26021;45.640;11.302;2023-03-03T09:09:38;98694.63;;;9.38;100.00
40315;BME280;26021;45.640;11.302;2023-03-03T09:12:14;98717.03;;;9.68;100.00
40315;BME280;26021;45.640;11.302;2023-03-03T09:14:41;98714.56;;;9.66;100.00
40315;BME280;26021;45.640;11.302;2023-03-03T09:17:22;98721.06;;;9.55;100.00
40315;BME280;26021;45.640;11.302;2023-03-03T09:19:49;98719.03;;;9.27;100.00
40315;BME280;26021;45.640;11.302;2023-03-03T09:22:21;98718.06;;;9.67;100.00
40315;BME280;26021;45.640;11.302;2023-03-03T09:24:48;98716.22;;;9.59;98.75
40315;BME280;26021;45.640;11.302;2023-03-03T09:27:30;98720.19;;;9.71;100.00
40315;BME280;26021;45.640;11.302;2023-03-03T09:30:00;98713.94;;;9.87;100.00
40315;BME280;26021;45.640;11.302;2023-03-03T09:32:36;98709.72;;;9.93;100.00
40315;BME280;26021;45.640;11.302;2023-03-03T09:37:51;98721.22;;;10.55;100.00
40315;BME280;26021;45.640;11.302;2023-03-03T09:40:36;98723.75;;;10.26;100.00
40315;BME280;26021;45.640;11.302;2023-03-03T09:43:12;98721.00;;;10.34;99.68
40315;BME280;26021;45.640;11.302;2023-03-03T09:56:23;98721.34;;;10.76;96.96
40315;BME280;26021;45.640;11.302;2023-03-03T09:58:55;98724.25;;;11.04;93.27
40315;BME280;26021;45.640;11.302;2023-03-03T10:04:35;98723.72;;;11.09;91.73
40315;BME280;26021;45.640;11.302;2023-03-03T10:07:36;98721.94;;;10.87;86.10
40315;BME280;26021;45.640;11.302;2023-03-03T10:10:23;98713.91;;;10.87;87.75
40315;BME280;26021;45.640;11.302;2023-03-03T10:18:50;98718.94;;;11.34;89.66
40315;BME280;26021;45.640;11.302;2023-03-03T10:24:28;98722.00;;;11.45;85.92
40315;BME280;26021;45.640;11.302;2023-03-03T10:27:10;98725.22;;;11.41;87.11
40315;BME280;26021;45.640;11.302;2023-03-03T10:54:29;98728.44;;;11.66;94.28
40315;BME280;26021;45.640;11.302;2023-03-03T10:57:20;98732.69;;;11.75;94.11
40315;BME280;26021;45.640;11.302;2023-03-03T11:05:49;98728.63;;;11.64;94.46
40315;BME280;26021;45.640;11.302;2023-03-03T11:08:25;98732.13;;;11.65;93.91
40315;BME280;26021;45.640;11.302;2023-03-03T11:13:32;98732.97;;;11.80;93.40
40315;BME280;26021;45.640;11.302;2023-03-03T11:22:30;98721.97;;;11.75;96.71
40315;BME280;26021;45.640;11.302;2023-03-03T11:33:06;98731.41;;;11.86;95.90
40315;BME280;26021;45.640;11.302;2023-03-03T11:35:43;98733.31;;;11.77;95.71
40315;BME280;26021;45.640;11.302;2023-03-03T11:41:38;98719.28;;;12.04;93.55
40315;BME280;26021;45.640;11.302;2023-03-03T11:46:53;98687.50;;;11.87;93.92
40315;BME280;26021;45.640;11.302;2023-03-03T11:49:40;98718.19;;;12.20;93.45
40315;BME280;26021;45.640;11.302;2023-03-03T11:55:26;98711.63;;;12.01;95.00
40315;BME280;26021;45.640;11.302;2023-03-03T11:57:57;98703.13;;;11.83;94.54
40315;BME280;26021;45.640;11.302;2023-03-03T12:00:34;98703.41;;;11.88;91.89
40315;BME280;26021;45.640;11.302;2023-03-03T12:03:20;98702.66;;;11.94;92.75
40315;BME280;26021;45.640;11.302;2023-03-03T12:11:53;98694.13;;;12.05;90.39
40315;BME280;26021;45.640;11.302;2023-03-03T12:27:37;98697.50;;;11.78;92.88
40315;BME280;26021;45.640;11.302;2023-03-03T12:38:39;98697.47;;;12.29;90.82
40315;BME280;26021;45.640;11.302;2023-03-03T12:44:33;98688.13;;;12.67;85.08
40315;BME280;26021;45.640;11.302;2023-03-03T12:50:15;98692.00;;;12.86;81.91
40315;BME280;26021;45.640;11.302;2023-03-03T13:08:45;98685.34;;;13.86;72.32
40315;BME280;26021;45.640;11.302;2023-03-03T13:17:20;98679.72;;;14.42;69.11
40315;BME280;26021;45.640;11.302;2023-03-03T13:20:18;98678.06;;;14.41;67.71
40315;BME280;26021;45.640;11.302;2023-03-03T13:25:52;98679.06;;;13.65;70.76
40315;BME280;26021;45.640;11.302;2023-03-03T13:31:32;98639.53;;;13.46;69.21
40315;BME280;26021;45.640;11.302;2023-03-03T13:33:59;98673.28;;;13.62;69.60
40315;BME280;26021;45.640;11.302;2023-03-03T13:36:43;98671.00;;;13.65;73.32
40315;BME280;26021;45.640;11.302;2023-03-03T13:39:37;98626.50;;;13.15;69.31
40315;BME280;26021;45.640;11.302;2023-03-03T13:42:59;98676.06;;;13.88;69.72
40315;BME280;26021;45.640;11.302;2023-03-03T13:45:02;98667.41;;;13.99;66.79
40315;BME280;26021;45.640;11.302;2023-03-03T13:47:52;98658.28;;;13.94;67.01
40315;BME280;26021;45.640;11.302;2023-03-03T13:50:32;98673.47;;;14.21;67.49
40315;BME280;26021;45.640;11.302;2023-03-03T13:58:30;98668.91;;;14.15;64.00
40315;BME280;26021;45.640;11.302;2023-03-03T14:01:26;98672.25;;;14.30;62.98
40315;BME280;26021;45.640;11.302;2023-03-03T14:04:04;98669.75;;;14.16;61.91
40315;BME280;26021;45.640;11.302;2023-03-03T14:06:33;98671.19;;;14.18;60.89
40315;BME280;26021;45.640;11.302;2023-03-03T14:09:10;98658.81;;;14.37;60.38
40315;BME280;26021;45.640;11.302;2023-03-03T14:19:52;98654.50;;;13.75;60.46
40315;BME280;26021;45.640;11.302;2023-03-03T14:25:09;98628.88;;;13.73;58.87
40315;BME280;26021;45.640;11.302;2023-03-03T14:27:36;98652.72;;;14.09;57.87
40315;BME280;26021;45.640;11.302;2023-03-03T14:33:20;98593.97;;;12.97;55.59
40315;BME280;26021;45.640;11.302;2023-03-03T14:35:50;98647.28;;;13.00;56.80
40315;BME280;26021;45.640;11.302;2023-03-03T14:38:19;98648.03;;;12.87;56.73
40315;BME280;26021;45.640;11.302;2023-03-03T14:40:47;98596.09;;;12.46;56.50
40315;BME280;26021;45.640;11.302;2023-03-03T14:43:54;98651.59;;;12.66;57.46
40315;BME280;26021;45.640;11.302;2023-03-03T14:46:36;98631.81;;;12.46;58.24
40315;BME280;26021;45.640;11.302;2023-03-03T14:49:12;98656.38;;;12.50;57.48
40315;BME280;26021;45.640;11.302;2023-03-03T14:51:43;98630.09;;;12.38;57.16
40315;BME280;26021;45.640;11.302;2023-03-03T14:54:19;98656.38;;;12.50;58.75
40315;BME280;26021;45.640;11.302;2023-03-03T14:59:25;98657.50;;;12.34;58.07
40315;BME280;26021;45.640;11.302;2023-03-03T15:04:42;98661.72;;;12.22;58.47
40315;BME280;26021;45.640;11.302;2023-03-03T15:09:51;98654.03;;;12.40;59.71
40315;BME280;26021;45.640;11.302;2023-03-03T15:12:36;98639.94;;;12.31;62.10
40315;BME280;26021;45.640;11.302;2023-03-03T15:15:16;98630.53;;;12.42;61.86
40315;BME280;26021;45.640;11.302;2023-03-03T15:17:43;98641.50;;;12.47;58.91
40315;BME280;26021;45.640;11.302;2023-03-03T15:20:58;98646.34;;;12.58;59.54
40315;BME280;26021;45.640;11.302;2023-03-03T15:35:03;98637.00;;;12.26;65.51
40315;BME280;26021;45.640;11.302;2023-03-03T15:40:34;98629.41;;;12.30;66.87
40315;BME280;26021;45.640;11.302;2023-03-03T15:43:26;98633.03;;;12.22;67.44
40315;BME280;26021;45.640;11.302;2023-03-03T15:46:05;98633.81;;;12.16;68.51
40315;BME280;26021;45.640;11.302;2023-03-03T15:57:32;98629.81;;;11.55;76.69
40315;BME280;26021;45.640;11.302;2023-03-03T16:02:47;98639.09;;;11.23;81.46
40315;BME280;26021;45.640;11.302;2023-03-03T16:05:22;98629.13;;;11.17;82.54
40315;BME280;26021;45.640;11.302;2023-03-03T16:11:06;98633.19;;;10.83;89.21
40315;BME280;26021;45.640;11.302;2023-03-03T16:19:10;98650.16;;;10.75;95.26
40315;BME280;26021;45.640;11.302;2023-03-03T16:21:49;98656.69;;;10.88;93.16
40315;BME280;26021;45.640;11.302;2023-03-03T16:29:46;98669.09;;;10.51;94.41
40315;BME280;26021;45.640;11.302;2023-03-03T16:32:43;98667.72;;;10.55;95.68
40315;BME280;26021;45.640;11.302;2023-03-03T16:35:27;98663.81;;;10.43;97.90
40315;BME280;26021;45.640;11.302;2023-03-03T16:38:23;98478.94;;;9.10;99.66
40315;BME280;26021;45.640;11.302;2023-03-03T16:41:00;98667.63;;;10.26;100.00
40315;BME280;26021;45.640;11.302;2023-03-03T16:54:19;98674.38;;;9.51;100.00
40315;BME280;26021;45.640;11.302;2023-03-03T16:57:06;98680.41;;;9.45;100.00
40315;BME280;26021;45.640;11.302;2023-03-03T17:05:05;98696.34;;;9.22;100.00
40315;BME280;26021;45.640;11.302;2023-03-03T17:10:41;98698.41;;;9.04;100.00
40315;BME280;26021;45.640;11.302;2023-03-03T17:13:35;98651.78;;;8.68;100.00
40315;BME280;26021;45.640;11.302;2023-03-03T17:16:27;98710.56;;;9.15;100.00
40315;BME280;26021;45.640;11.302;2023-03-03T17:24:54;98682.31;;;8.49;100.00
40315;BME280;26021;45.640;11.302;2023-03-03T17:33:43;98733.78;;;8.49;100.00
40315;BME280;26021;45.640;11.302;2023-03-03T17:46:52;98754.16;;;8.08;100.00
40315;BME280;26021;45.640;11.302;2023-03-03T17:49:45;98746.34;;;8.15;100.00
40315;BME280;26021;45.640;11.302;2023-03-03T17:52:41;98746.19;;;8.16;100.00
40315;BME280;26021;45.640;11.302;2023-03-03T18:06:50;98773.53;;;7.76;100.00